sensor_id;sensor_type;location;lat;lon;timestamp;P1;durP1;ratioP1;P2;durP2;ratioP2
18754;SDS011;35061;47.664;9.166;2023-07-29T00:02:15;4.47;;;3.28;;
18754;SDS011;35061;47.664;9.166;2023-07-29T00:04:43;3.55;;;3.25;;
18754;SDS011;35061;47.664;9.166;2023-07-29T00:07:11;3.83;;;3.45;;
18754;SDS011;35061;47.664;9.166;2023-07-29T00:09:39;3.85;;;3.45;;
18754;SDS011;35061;47.664;9.166;2023-07-29T00:12:07;4.60;;;3.17;;
18754;SDS011;35061;47.664;9.166;2023-07-29T00:14:35;5.43;;;3.55;;
18754;SDS011;35061;47.664;9.166;2023-07-29T00:17:03;4.60;;;3.80;;
18754;SDS011;35061;47.664;9.166;2023-07-29T00:19:31;4.12;;;3.47;;
18754;SDS011;35061;47.664;9.166;2023-07-29T00:22:00;4.55;;;3.75;;
18754;SDS011;35061;47.664;9.166;2023-07-29T00:24:28;4.40;;;3.50;;
18754;SDS011;35061;47.664;9.166;2023-07-29T00:26:56;4.05;;;3.60;;
18754;SDS011;35061;47.664;9.166;2023-07-29T00:29:24;4.05;;;3.30;;
18754;SDS011;35061;47.664;9.166;2023-07-29T00:31:52;4.78;;;3.50;;
18754;SDS011;35061;47.664;9.166;2023-07-29T00:34:20;4.07;;;3.65;;
18754;SDS011;35061;47.664;9.166;2023-07-29T00:36:48;4.22;;;3.58;;
18754;SDS011;35061;47.664;9.166;2023-07-29T00:39:16;4.07;;;3.25;;
18754;SDS011;35061;47.664;9.166;2023-07-29T00:41:44;3.50;;;3.20;;
18754;SDS011;35061;47.664;9.166;2023-07-29T00:44:12;4.03;;;3.25;;
18754;SDS011;35061;47.664;9.166;2023-07-29T00:46:40;3.75;;;3.20;;
18754;SDS011;35061;47.664;9.166;2023-07-29T00:49:09;5.25;;;3.65;;
18754;SDS011;35061;47.664;9.166;2023-07-29T00:51:37;3.90;;;3.50;;
18754;SDS011;35061;47.664;9.166;2023-07-29T00:54:05;3.67;;;3.33;;
18754;SDS011;35061;47.664;9.166;2023-07-29T00:56:33;3.65;;;3.28;;
18754;SDS011;35061;47.664;9.166;2023-07-29T00:59:02;4.50;;;3.47;;
18754;SDS011;35061;47.664;9.166;2023-07-29T01:01:30;4.22;;;3.30;;
18754;SDS011;35061;47.664;9.166;2023-07-29T01:03:58;3.03;;;2.83;;
18754;SDS011;35061;47.664;9.166;2023-07-29T01:06:29;4.07;;;3.30;;
18754;SDS011;35061;47.664;9.166;2023-07-29T01:09:12;4.22;;;3.65;;
18754;SDS011;35061;47.664;9.166;2023-07-29T01:15:07;2.80;;;2.55;;
18754;SDS011;35061;47.664;9.166;2023-07-29T01:17:54;3.50;;;2.95;;
18754;SDS011;35061;47.664;9.166;2023-07-29T01:20:26;2.97;;;2.75;;
18754;SDS011;35061;47.664;9.166;2023-07-29T01:22:56;5.37;;;3.45;;
18754;SDS011;35061;47.664;9.166;2023-07-29T01:25:24;4.93;;;3.17;;
18754;SDS011;35061;47.664;9.166;2023-07-29T01:27:52;3.60;;;2.95;;
18754;SDS011;35061;47.664;9.166;2023-07-29T01:30:20;3.78;;;3.20;;
18754;SDS011;35061;47.664;9.166;2023-07-29T01:35:45;3.40;;;3.10;;
18754;SDS011;35061;47.664;9.166;2023-07-29T01:38:24;4.30;;;3.10;;
18754;SDS011;35061;47.664;9.166;2023-07-29T01:41:00;3.03;;;2.80;;
18754;SDS011;35061;47.664;9.166;2023-07-29T01:43:29;3.58;;;3.20;;
18754;SDS011;35061;47.664;9.166;2023-07-29T01:45:58;3.62;;;3.30;;
18754;SDS011;35061;47.664;9.166;2023-07-29T01:48:27;4.65;;;3.10;;
18754;SDS011;35061;47.664;9.166;2023-07-29T01:50:58;3.95;;;2.90;;
18754;SDS011;35061;47.664;9.166;2023-07-29T01:53:25;5.32;;;3.10;;
18754;SDS011;35061;47.664;9.166;2023-07-29T01:55:53;3.47;;;3.17;;
18754;SDS011;35061;47.664;9.166;2023-07-29T01:58:21;4.30;;;2.87;;
18754;SDS011;35061;47.664;9.166;2023-07-29T02:00:49;4.40;;;2.97;;
18754;SDS011;35061;47.664;9.166;2023-07-29T02:03:17;4.68;;;3.25;;
18754;SDS011;35061;47.664;9.166;2023-07-29T02:05:45;3.00;;;2.70;;
18754;SDS011;35061;47.664;9.166;2023-07-29T02:08:13;4.45;;;3.53;;
18754;SDS011;35061;47.664;9.166;2023-07-29T02:10:41;3.67;;;2.92;;
18754;SDS011;35061;47.664;9.166;2023-07-29T02:13:12;4.28;;;3.30;;
18754;SDS011;35061;47.664;9.166;2023-07-29T02:15:40;3.22;;;2.72;;
18754;SDS011;35061;47.664;9.166;2023-07-29T02:18:08;2.90;;;2.70;;
18754;SDS011;35061;47.664;9.166;2023-07-29T02:20:36;3.30;;;3.00;;
18754;SDS011;35061;47.664;9.166;2023-07-29T02:23:04;3.12;;;2.62;;
18754;SDS011;35061;47.664;9.166;2023-07-29T02:25:34;2.92;;;2.65;;
18754;SDS011;35061;47.664;9.166;2023-07-29T02:28:03;2.97;;;2.78;;
18754;SDS011;35061;47.664;9.166;2023-07-29T02:30:31;4.00;;;2.95;;
18754;SDS011;35061;47.664;9.166;2023-07-29T02:32:59;3.10;;;2.85;;
18754;SDS011;35061;47.664;9.166;2023-07-29T02:35:29;3.00;;;2.70;;
18754;SDS011;35061;47.664;9.166;2023-07-29T02:37:57;3.28;;;2.92;;
18754;SDS011;35061;47.664;9.166;2023-07-29T02:40:25;3.33;;;2.90;;
18754;SDS011;35061;47.664;9.166;2023-07-29T02:42:54;6.35;;;3.25;;
18754;SDS011;35061;47.664;9.166;2023-07-29T02:45:22;3.60;;;3.20;;
18754;SDS011;35061;47.664;9.166;2023-07-29T02:47:50;4.05;;;3.37;;
18754;SDS011;35061;47.664;9.166;2023-07-29T02:50:18;5.28;;;3.17;;
18754;SDS011;35061;47.664;9.166;2023-07-29T02:52:46;5.30;;;3.08;;
18754;SDS011;35061;47.664;9.166;2023-07-29T02:55:16;4.35;;;3.40;;
18754;SDS011;35061;47.664;9.166;2023-07-29T02:57:45;5.60;;;3.90;;
18754;SDS011;35061;47.664;9.166;2023-07-29T03:00:13;5.72;;;3.90;;
18754;SDS011;35061;47.664;9.166;2023-07-29T03:02:41;5.90;;;4.28;;
18754;SDS011;35061;47.664;9.166;2023-07-29T03:05:09;4.37;;;3.60;;
18754;SDS011;35061;47.664;9.166;2023-07-29T03:07:37;4.75;;;3.97;;
18754;SDS011;35061;47.664;9.166;2023-07-29T03:10:05;5.87;;;4.47;;
18754;SDS011;35061;47.664;9.166;2023-07-29T03:12:34;5.32;;;4.82;;
18754;SDS011;35061;47.664;9.166;2023-07-29T03:15:02;6.03;;;5.43;;
18754;SDS011;35061;47.664;9.166;2023-07-29T03:17:30;6.12;;;4.97;;
18754;SDS011;35061;47.664;9.166;2023-07-29T03:19:58;7.15;;;6.25;;
18754;SDS011;35061;47.664;9.166;2023-07-29T03:22:26;9.00;;;7.35;;
18754;SDS011;35061;47.664;9.166;2023-07-29T03:24:54;8.88;;;6.45;;
18754;SDS011;35061;47.664;9.166;2023-07-29T03:27:22;10.32;;;7.57;;
18754;SDS011;35061;47.664;9.166;2023-07-29T03:29:50;9.82;;;7.37;;
18754;SDS011;35061;47.664;9.166;2023-07-29T03:32:18;11.18;;;6.82;;
18754;SDS011;35061;47.664;9.166;2023-07-29T03:34:46;6.85;;;6.15;;
18754;SDS011;35061;47.664;9.166;2023-07-29T03:37:14;8.52;;;6.93;;
18754;SDS011;35061;47.664;9.166;2023-07-29T03:39:42;8.18;;;6.70;;
18754;SDS011;35061;47.664;9.166;2023-07-29T03:42:10;8.05;;;6.15;;
18754;SDS011;35061;47.664;9.166;2023-07-29T03:44:38;7.00;;;6.30;;
18754;SDS011;35061;47.664;9.166;2023-07-29T03:47:07;8.35;;;6.10;;
18754;SDS011;35061;47.664;9.166;2023-07-29T03:49:35;8.63;;;6.03;;
18754;SDS011;35061;47.664;9.166;2023-07-29T03:52:03;7.22;;;5.53;;
18754;SDS011;35061;47.664;9.166;2023-07-29T03:54:31;6.35;;;4.97;;
18754;SDS011;35061;47.664;9.166;2023-07-29T03:56:59;6.40;;;4.75;;
18754;SDS011;35061;47.664;9.166;2023-07-29T03:59:27;6.43;;;5.32;;
18754;SDS011;35061;47.664;9.166;2023-07-29T04:01:55;5.47;;;4.78;;
18754;SDS011;35061;47.664;9.166;2023-07-29T04:04:23;4.97;;;4.45;;
18754;SDS011;35061;47.664;9.166;2023-07-29T04:06:51;5.25;;;4.75;;
18754;SDS011;35061;47.664;9.166;2023-07-29T04:09:19;4.90;;;4.40;;
18754;SDS011;35061;47.664;9.166;2023-07-29T04:11:47;5.00;;;4.50;;
18754;SDS011;35061;47.664;9.166;2023-07-29T04:14:16;5.03;;;3.97;;
18754;SDS011;35061;47.664;9.166;2023-07-29T04:16:44;4.47;;;3.80;;
18754;SDS011;35061;47.664;9.166;2023-07-29T04:19:15;4.35;;;3.72;;
18754;SDS011;35061;47.664;9.166;2023-07-29T04:21:43;5.75;;;3.75;;
18754;SDS011;35061;47.664;9.166;2023-07-29T04:24:11;4.45;;;4.00;;
18754;SDS011;35061;47.664;9.166;2023-07-29T04:26:39;6.10;;;3.97;;
18754;SDS011;35061;47.664;9.166;2023-07-29T04:29:07;5.30;;;4.28;;
18754;SDS011;35061;47.664;9.166;2023-07-29T04:31:35;5.95;;;3.70;;
18754;SDS011;35061;47.664;9.166;2023-07-29T04:34:04;4.25;;;3.83;;
18754;SDS011;35061;47.664;9.166;2023-07-29T04:36:32;4.95;;;4.47;;
18754;SDS011;35061;47.664;9.166;2023-07-29T04:39:01;4.20;;;3.53;;
18754;SDS011;35061;47.664;9.166;2023-07-29T04:41:29;4.60;;;4.10;;
18754;SDS011;35061;47.664;9.166;2023-07-29T04:43:57;5.18;;;3.90;;
18754;SDS011;35061;47.664;9.166;2023-07-29T04:46:25;4.22;;;3.70;;
18754;SDS011;35061;47.664;9.166;2023-07-29T04:48:53;5.32;;;3.92;;
18754;SDS011;35061;47.664;9.166;2023-07-29T04:51:21;5.53;;;3.92;;
18754;SDS011;35061;47.664;9.166;2023-07-29T04:53:49;5.22;;;4.32;;
18754;SDS011;35061;47.664;9.166;2023-07-29T04:56:17;5.97;;;4.30;;
18754;SDS011;35061;47.664;9.166;2023-07-29T04:58:45;4.85;;;4.35;;
18754;SDS011;35061;47.664;9.166;2023-07-29T05:01:13;4.18;;;3.78;;
18754;SDS011;35061;47.664;9.166;2023-07-29T05:03:41;4.72;;;4.22;;
18754;SDS011;35061;47.664;9.166;2023-07-29T05:06:09;4.68;;;4.25;;
18754;SDS011;35061;47.664;9.166;2023-07-29T05:08:37;4.87;;;4.28;;
18754;SDS011;35061;47.664;9.166;2023-07-29T05:11:05;4.22;;;3.83;;
18754;SDS011;35061;47.664;9.166;2023-07-29T05:13:33;4.43;;;4.03;;
18754;SDS011;35061;47.664;9.166;2023-07-29T05:16:01;4.80;;;4.30;;
18754;SDS011;35061;47.664;9.166;2023-07-29T05:18:29;4.30;;;3.67;;
18754;SDS011;35061;47.664;9.166;2023-07-29T05:20:57;6.03;;;3.80;;
18754;SDS011;35061;47.664;9.166;2023-07-29T05:23:25;4.32;;;3.92;;
18754;SDS011;35061;47.664;9.166;2023-07-29T05:25:53;3.75;;;3.45;;
18754;SDS011;35061;47.664;9.166;2023-07-29T05:28:21;4.47;;;4.07;;
18754;SDS011;35061;47.664;9.166;2023-07-29T05:30:49;3.92;;;3.53;;
18754;SDS011;35061;47.664;9.166;2023-07-29T05:33:17;3.80;;;3.50;;
18754;SDS011;35061;47.664;9.166;2023-07-29T05:35:46;5.32;;;4.25;;
18754;SDS011;35061;47.664;9.166;2023-07-29T05:38:15;3.92;;;3.53;;
18754;SDS011;35061;47.664;9.166;2023-07-29T05:40:42;3.83;;;3.53;;
18754;SDS011;35061;47.664;9.166;2023-07-29T05:43:10;4.95;;;3.75;;
18754;SDS011;35061;47.664;9.166;2023-07-29T05:45:38;4.18;;;3.78;;
18754;SDS011;35061;47.664;9.166;2023-07-29T05:48:06;3.55;;;3.25;;
18754;SDS011;35061;47.664;9.166;2023-07-29T05:50:34;3.87;;;3.30;;
18754;SDS011;35061;47.664;9.166;2023-07-29T05:53:02;3.90;;;2.85;;
18754;SDS011;35061;47.664;9.166;2023-07-29T05:55:31;4.93;;;3.40;;
18754;SDS011;35061;47.664;9.166;2023-07-29T05:57:59;3.75;;;3.20;;
18754;SDS011;35061;47.664;9.166;2023-07-29T06:00:27;3.67;;;3.37;;
18754;SDS011;35061;47.664;9.166;2023-07-29T06:02:55;4.97;;;3.15;;
18754;SDS011;35061;47.664;9.166;2023-07-29T06:05:23;3.83;;;3.30;;
18754;SDS011;35061;47.664;9.166;2023-07-29T06:07:51;3.75;;;3.35;;
18754;SDS011;35061;47.664;9.166;2023-07-29T06:10:19;4.22;;;3.78;;
18754;SDS011;35061;47.664;9.166;2023-07-29T06:12:47;4.00;;;3.60;;
18754;SDS011;35061;47.664;9.166;2023-07-29T06:15:15;3.42;;;3.15;;
18754;SDS011;35061;47.664;9.166;2023-07-29T06:17:44;6.00;;;3.30;;
18754;SDS011;35061;47.664;9.166;2023-07-29T06:20:12;4.20;;;3.62;;
18754;SDS011;35061;47.664;9.166;2023-07-29T06:22:40;4.00;;;3.25;;
18754;SDS011;35061;47.664;9.166;2023-07-29T06:25:08;4.03;;;3.60;;
18754;SDS011;35061;47.664;9.166;2023-07-29T06:27:36;4.37;;;3.20;;
18754;SDS011;35061;47.664;9.166;2023-07-29T06:30:05;4.10;;;3.70;;
18754;SDS011;35061;47.664;9.166;2023-07-29T06:32:33;3.97;;;3.58;;
18754;SDS011;35061;47.664;9.166;2023-07-29T06:35:01;3.72;;;3.37;;
18754;SDS011;35061;47.664;9.166;2023-07-29T06:37:30;3.37;;;3.05;;
18754;SDS011;35061;47.664;9.166;2023-07-29T06:39:57;4.57;;;3.42;;
18754;SDS011;35061;47.664;9.166;2023-07-29T06:42:25;3.70;;;3.30;;
18754;SDS011;35061;47.664;9.166;2023-07-29T06:44:53;3.30;;;3.00;;
18754;SDS011;35061;47.664;9.166;2023-07-29T06:47:21;3.33;;;3.00;;
18754;SDS011;35061;47.664;9.166;2023-07-29T06:49:49;4.15;;;3.12;;
18754;SDS011;35061;47.664;9.166;2023-07-29T06:52:17;3.90;;;3.50;;
18754;SDS011;35061;47.664;9.166;2023-07-29T06:54:45;3.45;;;3.15;;
18754;SDS011;35061;47.664;9.166;2023-07-29T06:57:13;4.00;;;3.25;;
18754;SDS011;35061;47.664;9.166;2023-07-29T06:59:41;5.03;;;3.37;;
18754;SDS011;35061;47.664;9.166;2023-07-29T07:02:09;3.40;;;3.10;;
18754;SDS011;35061;47.664;9.166;2023-07-29T07:04:37;3.17;;;2.87;;
18754;SDS011;35061;47.664;9.166;2023-07-29T07:07:05;3.50;;;3.17;;
18754;SDS011;35061;47.664;9.166;2023-07-29T07:09:33;4.87;;;3.55;;
18754;SDS011;35061;47.664;9.166;2023-07-29T07:12:01;3.40;;;3.12;;
18754;SDS011;35061;47.664;9.166;2023-07-29T07:14:28;4.00;;;3.60;;
18754;SDS011;35061;47.664;9.166;2023-07-29T07:16:56;3.80;;;3.50;;
18754;SDS011;35061;47.664;9.166;2023-07-29T07:19:25;3.30;;;3.00;;
18754;SDS011;35061;47.664;9.166;2023-07-29T07:21:52;3.95;;;3.55;;
18754;SDS011;35061;47.664;9.166;2023-07-29T07:24:21;3.25;;;2.97;;
18754;SDS011;35061;47.664;9.166;2023-07-29T07:26:49;3.90;;;3.50;;
18754;SDS011;35061;47.664;9.166;2023-07-29T07:29:17;4.18;;;3.25;;
18754;SDS011;35061;47.664;9.166;2023-07-29T07:31:50;4.07;;;3.75;;
18754;SDS011;35061;47.664;9.166;2023-07-29T07:34:20;7.37;;;3.33;;
18754;SDS011;35061;47.664;9.166;2023-07-29T07:36:48;4.25;;;3.85;;
18754;SDS011;35061;47.664;9.166;2023-07-29T07:39:17;4.65;;;3.40;;
18754;SDS011;35061;47.664;9.166;2023-07-29T07:41:45;4.03;;;3.58;;
18754;SDS011;35061;47.664;9.166;2023-07-29T07:44:13;3.28;;;2.97;;
18754;SDS011;35061;47.664;9.166;2023-07-29T07:46:43;4.25;;;3.92;;
18754;SDS011;35061;47.664;9.166;2023-07-29T07:49:12;3.85;;;3.55;;
18754;SDS011;35061;47.664;9.166;2023-07-29T07:51:40;3.78;;;3.47;;
18754;SDS011;35061;47.664;9.166;2023-07-29T07:54:10;6.80;;;3.83;;
18754;SDS011;35061;47.664;9.166;2023-07-29T07:56:38;3.90;;;3.45;;
18754;SDS011;35061;47.664;9.166;2023-07-29T07:59:06;4.87;;;3.60;;
18754;SDS011;35061;47.664;9.166;2023-07-29T08:01:35;4.25;;;3.45;;
18754;SDS011;35061;47.664;9.166;2023-07-29T08:04:04;5.57;;;3.62;;
18754;SDS011;35061;47.664;9.166;2023-07-29T08:06:32;3.95;;;3.58;;
18754;SDS011;35061;47.664;9.166;2023-07-29T08:09:01;4.32;;;3.78;;
18754;SDS011;35061;47.664;9.166;2023-07-29T08:11:29;7.22;;;3.80;;
18754;SDS011;35061;47.664;9.166;2023-07-29T08:13:58;3.92;;;3.53;;
18754;SDS011;35061;47.664;9.166;2023-07-29T08:16:26;3.90;;;3.60;;
18754;SDS011;35061;47.664;9.166;2023-07-29T08:18:54;5.22;;;3.70;;
18754;SDS011;35061;47.664;9.166;2023-07-29T08:21:22;4.25;;;3.62;;
18754;SDS011;35061;47.664;9.166;2023-07-29T08:23:50;3.87;;;3.22;;
18754;SDS011;35061;47.664;9.166;2023-07-29T08:26:18;3.40;;;3.10;;
18754;SDS011;35061;47.664;9.166;2023-07-29T08:28:46;4.47;;;4.07;;
18754;SDS011;35061;47.664;9.166;2023-07-29T08:31:14;3.47;;;3.17;;
18754;SDS011;35061;47.664;9.166;2023-07-29T08:33:41;4.32;;;3.55;;
18754;SDS011;35061;47.664;9.166;2023-07-29T08:36:09;4.07;;;3.47;;
18754;SDS011;35061;47.664;9.166;2023-07-29T08:38:37;3.30;;;3.00;;
18754;SDS011;35061;47.664;9.166;2023-07-29T08:46:45;3.35;;;3.05;;
18754;SDS011;35061;47.664;9.166;2023-07-29T08:49:14;4.12;;;3.67;;
18754;SDS011;35061;47.664;9.166;2023-07-29T08:51:46;3.92;;;3.37;;
18754;SDS011;35061;47.664;9.166;2023-07-29T08:54:18;3.97;;;3.45;;
18754;SDS011;35061;47.664;9.166;2023-07-29T08:56:46;4.05;;;3.30;;
18754;SDS011;35061;47.664;9.166;2023-07-29T08:59:14;3.55;;;3.25;;
18754;SDS011;35061;47.664;9.166;2023-07-29T09:01:44;3.60;;;3.28;;
18754;SDS011;35061;47.664;9.166;2023-07-29T09:04:14;6.07;;;3.75;;
18754;SDS011;35061;47.664;9.166;2023-07-29T09:06:43;4.18;;;3.10;;
18754;SDS011;35061;47.664;9.166;2023-07-29T09:09:12;4.82;;;3.17;;
18754;SDS011;35061;47.664;9.166;2023-07-29T09:11:40;5.00;;;3.22;;
18754;SDS011;35061;47.664;9.166;2023-07-29T09:14:08;5.97;;;3.90;;
18754;SDS011;35061;47.664;9.166;2023-07-29T09:16:36;4.47;;;3.17;;
18754;SDS011;35061;47.664;9.166;2023-07-29T09:19:06;3.95;;;3.65;;
18754;SDS011;35061;47.664;9.166;2023-07-29T09:21:34;3.87;;;3.50;;
18754;SDS011;35061;47.664;9.166;2023-07-29T09:24:07;4.45;;;3.65;;
18754;SDS011;35061;47.664;9.166;2023-07-29T09:26:35;4.87;;;3.72;;
18754;SDS011;35061;47.664;9.166;2023-07-29T09:29:03;6.32;;;3.30;;
18754;SDS011;35061;47.664;9.166;2023-07-29T09:31:31;3.95;;;3.40;;
18754;SDS011;35061;47.664;9.166;2023-07-29T09:34:00;4.68;;;3.58;;
18754;SDS011;35061;47.664;9.166;2023-07-29T09:36:31;3.75;;;3.35;;
18754;SDS011;35061;47.664;9.166;2023-07-29T09:39:00;3.70;;;3.40;;
18754;SDS011;35061;47.664;9.166;2023-07-29T09:41:28;3.87;;;3.37;;
18754;SDS011;35061;47.664;9.166;2023-07-29T09:44:00;4.03;;;3.62;;
18754;SDS011;35061;47.664;9.166;2023-07-29T09:46:33;4.00;;;3.60;;
18754;SDS011;35061;47.664;9.166;2023-07-29T09:49:04;3.55;;;3.25;;
18754;SDS011;35061;47.664;9.166;2023-07-29T09:51:37;4.57;;;4.12;;
18754;SDS011;35061;47.664;9.166;2023-07-29T09:54:07;4.87;;;2.92;;
18754;SDS011;35061;47.664;9.166;2023-07-29T09:56:39;3.83;;;3.47;;
18754;SDS011;35061;47.664;9.166;2023-07-29T09:59:10;3.67;;;3.35;;
18754;SDS011;35061;47.664;9.166;2023-07-29T10:01:39;3.20;;;2.83;;
18754;SDS011;35061;47.664;9.166;2023-07-29T10:04:08;4.00;;;3.00;;
18754;SDS011;35061;47.664;9.166;2023-07-29T10:06:39;4.82;;;3.33;;
18754;SDS011;35061;47.664;9.166;2023-07-29T10:09:07;4.80;;;2.80;;
18754;SDS011;35061;47.664;9.166;2023-07-29T10:11:37;3.60;;;2.78;;
18754;SDS011;35061;47.664;9.166;2023-07-29T10:14:06;3.20;;;2.90;;
18754;SDS011;35061;47.664;9.166;2023-07-29T10:16:36;2.75;;;2.55;;
18754;SDS011;35061;47.664;9.166;2023-07-29T10:19:06;2.92;;;2.62;;
18754;SDS011;35061;47.664;9.166;2023-07-29T10:21:39;3.20;;;2.90;;
18754;SDS011;35061;47.664;9.166;2023-07-29T10:24:09;3.33;;;2.60;;
18754;SDS011;35061;47.664;9.166;2023-07-29T10:26:45;2.97;;;2.72;;
18754;SDS011;35061;47.664;9.166;2023-07-29T10:29:14;3.50;;;2.75;;
18754;SDS011;35061;47.664;9.166;2023-07-29T10:31:46;2.40;;;2.20;;
18754;SDS011;35061;47.664;9.166;2023-07-29T10:34:14;3.72;;;2.45;;
18754;SDS011;35061;47.664;9.166;2023-07-29T10:36:43;3.03;;;2.62;;
18754;SDS011;35061;47.664;9.166;2023-07-29T10:39:11;4.12;;;2.65;;
18754;SDS011;35061;47.664;9.166;2023-07-29T10:44:51;3.92;;;2.80;;
18754;SDS011;35061;47.664;9.166;2023-07-29T10:47:27;2.90;;;2.70;;
18754;SDS011;35061;47.664;9.166;2023-07-29T10:49:57;3.22;;;2.92;;
18754;SDS011;35061;47.664;9.166;2023-07-29T10:52:30;4.10;;;2.53;;
18754;SDS011;35061;47.664;9.166;2023-07-29T10:55:02;3.00;;;2.80;;
18754;SDS011;35061;47.664;9.166;2023-07-29T10:57:35;2.90;;;2.60;;
18754;SDS011;35061;47.664;9.166;2023-07-29T11:00:04;2.70;;;2.50;;
18754;SDS011;35061;47.664;9.166;2023-07-29T11:02:36;3.10;;;2.83;;
18754;SDS011;35061;47.664;9.166;2023-07-29T11:05:17;2.50;;;2.30;;
18754;SDS011;35061;47.664;9.166;2023-07-29T11:07:47;3.15;;;2.75;;
18754;SDS011;35061;47.664;9.166;2023-07-29T11:10:16;2.50;;;2.30;;
18754;SDS011;35061;47.664;9.166;2023-07-29T11:15:14;3.10;;;2.65;;
18754;SDS011;35061;47.664;9.166;2023-07-29T11:20:25;2.47;;;2.28;;
18754;SDS011;35061;47.664;9.166;2023-07-29T11:22:55;3.22;;;2.67;;
18754;SDS011;35061;47.664;9.166;2023-07-29T11:25:27;2.92;;;2.72;;
18754;SDS011;35061;47.664;9.166;2023-07-29T11:27:57;3.00;;;2.28;;
18754;SDS011;35061;47.664;9.166;2023-07-29T11:30:32;3.08;;;2.55;;
18754;SDS011;35061;47.664;9.166;2023-07-29T11:33:01;3.58;;;2.40;;
18754;SDS011;35061;47.664;9.166;2023-07-29T11:35:29;7.05;;;3.10;;
18754;SDS011;35061;47.664;9.166;2023-07-29T11:37:57;8.05;;;3.47;;
18754;SDS011;35061;47.664;9.166;2023-07-29T11:40:25;6.25;;;3.08;;
18754;SDS011;35061;47.664;9.166;2023-07-29T11:42:53;5.80;;;2.33;;
18754;SDS011;35061;47.664;9.166;2023-07-29T11:45:22;3.30;;;2.53;;
18754;SDS011;35061;47.664;9.166;2023-07-29T11:47:57;3.00;;;2.15;;
18754;SDS011;35061;47.664;9.166;2023-07-29T11:50:26;2.17;;;1.98;;
18754;SDS011;35061;47.664;9.166;2023-07-29T11:52:54;3.17;;;2.40;;
18754;SDS011;35061;47.664;9.166;2023-07-29T11:55:22;3.00;;;2.40;;
18754;SDS011;35061;47.664;9.166;2023-07-29T11:57:51;3.00;;;2.37;;
18754;SDS011;35061;47.664;9.166;2023-07-29T12:00:20;3.12;;;2.40;;
18754;SDS011;35061;47.664;9.166;2023-07-29T12:02:48;3.35;;;2.50;;
18754;SDS011;35061;47.664;9.166;2023-07-29T12:05:18;2.65;;;2.45;;
18754;SDS011;35061;47.664;9.166;2023-07-29T12:07:50;3.22;;;2.35;;
18754;SDS011;35061;47.664;9.166;2023-07-29T12:10:18;2.25;;;2.05;;
18754;SDS011;35061;47.664;9.166;2023-07-29T12:12:48;3.37;;;2.30;;
18754;SDS011;35061;47.664;9.166;2023-07-29T12:15:27;3.62;;;2.70;;
18754;SDS011;35061;47.664;9.166;2023-07-29T12:17:57;2.55;;;2.35;;
18754;SDS011;35061;47.664;9.166;2023-07-29T12:20:26;2.50;;;2.30;;
18754;SDS011;35061;47.664;9.166;2023-07-29T12:25:33;2.87;;;2.67;;
18754;SDS011;35061;47.664;9.166;2023-07-29T12:28:05;4.78;;;2.50;;
18754;SDS011;35061;47.664;9.166;2023-07-29T12:30:34;4.18;;;2.20;;
18754;SDS011;35061;47.664;9.166;2023-07-29T12:33:09;2.33;;;2.12;;
18754;SDS011;35061;47.664;9.166;2023-07-29T12:35:37;3.90;;;2.20;;
18754;SDS011;35061;47.664;9.166;2023-07-29T12:38:06;2.47;;;2.28;;
18754;SDS011;35061;47.664;9.166;2023-07-29T12:40:37;2.50;;;2.30;;
18754;SDS011;35061;47.664;9.166;2023-07-29T12:43:09;2.47;;;2.28;;
18754;SDS011;35061;47.664;9.166;2023-07-29T12:45:42;2.60;;;2.40;;
18754;SDS011;35061;47.664;9.166;2023-07-29T12:48:13;3.35;;;2.50;;
18754;SDS011;35061;47.664;9.166;2023-07-29T12:50:42;2.75;;;2.55;;
18754;SDS011;35061;47.664;9.166;2023-07-29T12:53:13;2.50;;;2.30;;
18754;SDS011;35061;47.664;9.166;2023-07-29T12:55:41;4.85;;;2.80;;
18754;SDS011;35061;47.664;9.166;2023-07-29T12:58:11;2.97;;;2.30;;
18754;SDS011;35061;47.664;9.166;2023-07-29T13:00:39;2.90;;;2.62;;
18754;SDS011;35061;47.664;9.166;2023-07-29T13:03:07;2.53;;;2.33;;
18754;SDS011;35061;47.664;9.166;2023-07-29T13:05:38;3.62;;;2.78;;
18754;SDS011;35061;47.664;9.166;2023-07-29T13:08:11;3.72;;;2.92;;
18754;SDS011;35061;47.664;9.166;2023-07-29T13:10:39;2.33;;;2.12;;
18754;SDS011;35061;47.664;9.166;2023-07-29T13:13:09;3.25;;;2.65;;
18754;SDS011;35061;47.664;9.166;2023-07-29T13:15:37;3.05;;;2.42;;
18754;SDS011;35061;47.664;9.166;2023-07-29T13:18:05;3.35;;;2.45;;
18754;SDS011;35061;47.664;9.166;2023-07-29T13:20:33;5.32;;;2.97;;
18754;SDS011;35061;47.664;9.166;2023-07-29T13:23:02;6.37;;;2.80;;
18754;SDS011;35061;47.664;9.166;2023-07-29T13:25:30;4.70;;;3.28;;
18754;SDS011;35061;47.664;9.166;2023-07-29T13:27:58;3.12;;;2.83;;
18754;SDS011;35061;47.664;9.166;2023-07-29T13:30:26;3.75;;;2.72;;
18754;SDS011;35061;47.664;9.166;2023-07-29T13:32:54;3.12;;;2.83;;
18754;SDS011;35061;47.664;9.166;2023-07-29T13:35:22;3.22;;;2.85;;
18754;SDS011;35061;47.664;9.166;2023-07-29T13:37:50;2.72;;;2.53;;
18754;SDS011;35061;47.664;9.166;2023-07-29T13:40:18;3.33;;;3.03;;
18754;SDS011;35061;47.664;9.166;2023-07-29T13:42:46;3.55;;;2.80;;
18754;SDS011;35061;47.664;9.166;2023-07-29T13:45:14;3.33;;;2.62;;
18754;SDS011;35061;47.664;9.166;2023-07-29T13:47:42;2.90;;;2.62;;
18754;SDS011;35061;47.664;9.166;2023-07-29T13:50:10;5.82;;;2.97;;
18754;SDS011;35061;47.664;9.166;2023-07-29T13:52:39;4.78;;;2.85;;
18754;SDS011;35061;47.664;9.166;2023-07-29T13:55:09;3.78;;;2.80;;
18754;SDS011;35061;47.664;9.166;2023-07-29T13:57:38;3.50;;;2.62;;
18754;SDS011;35061;47.664;9.166;2023-07-29T14:00:07;3.37;;;2.55;;
18754;SDS011;35061;47.664;9.166;2023-07-29T14:02:38;3.08;;;2.67;;
18754;SDS011;35061;47.664;9.166;2023-07-29T14:05:06;2.85;;;2.53;;
18754;SDS011;35061;47.664;9.166;2023-07-29T14:07:35;2.65;;;2.22;;
18754;SDS011;35061;47.664;9.166;2023-07-29T14:10:03;3.87;;;2.37;;
18754;SDS011;35061;47.664;9.166;2023-07-29T14:12:31;3.40;;;2.62;;
18754;SDS011;35061;47.664;9.166;2023-07-29T14:14:59;3.53;;;2.50;;
18754;SDS011;35061;47.664;9.166;2023-07-29T14:17:27;3.35;;;2.45;;
18754;SDS011;35061;47.664;9.166;2023-07-29T14:19:55;3.10;;;2.72;;
18754;SDS011;35061;47.664;9.166;2023-07-29T14:22:23;4.32;;;2.65;;
18754;SDS011;35061;47.664;9.166;2023-07-29T14:24:51;3.12;;;2.45;;
18754;SDS011;35061;47.664;9.166;2023-07-29T14:27:19;2.42;;;2.15;;
18754;SDS011;35061;47.664;9.166;2023-07-29T14:29:47;2.28;;;2.08;;
18754;SDS011;35061;47.664;9.166;2023-07-29T14:32:15;2.65;;;2.45;;
18754;SDS011;35061;47.664;9.166;2023-07-29T14:34:45;3.40;;;2.50;;
18754;SDS011;35061;47.664;9.166;2023-07-29T14:37:13;2.60;;;2.40;;
18754;SDS011;35061;47.664;9.166;2023-07-29T14:39:41;5.18;;;2.47;;
18754;SDS011;35061;47.664;9.166;2023-07-29T14:42:09;4.25;;;2.50;;
18754;SDS011;35061;47.664;9.166;2023-07-29T14:44:37;2.92;;;2.72;;
18754;SDS011;35061;47.664;9.166;2023-07-29T14:47:05;2.53;;;2.33;;
18754;SDS011;35061;47.664;9.166;2023-07-29T14:49:34;2.83;;;2.30;;
18754;SDS011;35061;47.664;9.166;2023-07-29T14:52:03;2.92;;;2.53;;
18754;SDS011;35061;47.664;9.166;2023-07-29T14:54:31;3.00;;;2.75;;
18754;SDS011;35061;47.664;9.166;2023-07-29T14:56:59;4.93;;;2.50;;
18754;SDS011;35061;47.664;9.166;2023-07-29T14:59:27;3.20;;;2.50;;
18754;SDS011;35061;47.664;9.166;2023-07-29T15:01:55;2.67;;;2.33;;
18754;SDS011;35061;47.664;9.166;2023-07-29T15:04:23;4.22;;;2.65;;
18754;SDS011;35061;47.664;9.166;2023-07-29T15:06:51;2.15;;;1.95;;
18754;SDS011;35061;47.664;9.166;2023-07-29T15:09:19;3.97;;;2.10;;
18754;SDS011;35061;47.664;9.166;2023-07-29T15:11:47;4.00;;;2.40;;
18754;SDS011;35061;47.664;9.166;2023-07-29T15:14:15;2.83;;;2.47;;
18754;SDS011;35061;47.664;9.166;2023-07-29T15:16:44;3.00;;;2.70;;
18754;SDS011;35061;47.664;9.166;2023-07-29T15:19:12;2.70;;;2.40;;
18754;SDS011;35061;47.664;9.166;2023-07-29T15:21:44;4.60;;;2.67;;